KENL/ENL METAR and TAF weather

Enter ICAO airport designator
Station Type Date Time Source
KENL METAR 2020/01/29 12:55 UTC NOAA

KENL 291255Z AUTO 00000KT 3SM -SN OVC008 00/00 A3014 RMK AO2 T10031003


Station Type Date Time Source
KENL Decoded METAR 2020/01/29 12:55 UTC NOAA

Centralia, Centralia Municipal Airport, IL, United States (KENL) 38-30-53N 089-05-32W
Jan 29, 2020 - 07:55 AM EST / 2020.01.29 1255 UTC
Wind: Calm:0
Visibility: 3 mile(s):0
Sky conditions: overcast
Weather: light snow
Temperature: 31.5 F (-0.3 C)
Dew Point: 31.5 F (-0.3 C)
Relative Humidity: 100%
Pressure (altimeter): 30.14 in. Hg (1020 hPa)
ob: KENL 291255Z AUTO 00000KT 3SM -SN OVC008 00/00 A3014 RMK AO2 T10031003
cycle: 13

Station Type Date Time Source
KENL TAF UTC NOAA

Error!

Example: see airport list